Pagina principale
METAR-TAF:

METAR-TAF

Aeroporti :

Aeroporto di Roma-Urbe

Roma, Italia

latitudine: 41-57N, longitudine: 012-30E, altezza: 18 m

Osservazione

Il bollettino è stato emesso 24 minuti fa, alle 10:50 UTC
Vento 4 kt da direzioni variabili
Temperature 28°C
Umidità 37%
Pressione 1024 hPa
Visibilità 10 km o più
nessuna nube inferiore a 1500 m e nessun cumulonembo

METAR: LIRU 191050Z VRB04KT CAVOK 28/12 Q1024

Ora: 13:14 (11:14 UTC)

Previsione

Il bollettino è stato emesso 3 ore e 14 minuti fa, alle 08:00 UTC
Previsione valida dal 19 alle 09 UTC al 19 alle 18 UTC
Vento 5 kt da direzioni variabili
Visibilità 10 km o più
nessuna nube inferiore a 1500 m e nessun cumulonembo
Evoluzione graduale
dal 19 alle 10 UTC al 19 alle 12 UTC
Vento 10 kt da ovest
Evoluzione graduale
dal 19 alle 16 UTC al 19 alle 18 UTC
Vento 5 kt da direzioni variabili

TAF: LIRU 190800Z 1909/1918 VRB05KT CAVOK BECMG 1910/1912 26010KT BECMG 1916/1918 VRB05KT

Osservazioni e previsioni meteorologiche di più di 4000 aeroporti (messaggi METAR e TAF).

Le stazioni disponibili sono rappresentate dai dischi gialli e rossi sulla carta.

Puntare il mouse per vedere il nome della stazione.

Clicca sopra per visualizzare le osservazioni e previsioni meteorologiche.

Per cambiare la mappa : fare clic sui pulsanti verdi con una croce nera per ingrandire, il pulsante verde con un trattino per diminuire, o sulla freccia verde per le mappe adiacenti.


METAR-TAF: